Time;durP1;ratioP1;P1;durP2;ratioP2;P2;SDS_P1;SDS_P2;PMS_P1;PMS_P2;Temp;Humidity;BMP_temperature;BMP_pressure;BME280_temperature;BME280_humidity;BME280_pressure;Samples;Min_cycle;Max_cycle;Signal;HPM_P1;HPM_P2
2022/05/02 00:00:17;;;;;;;4.90;4.47;;;;;;;8.82;70.40;98817.38;4102230;28;20206;-57
2022/05/02 00:02:18;;;;;;;5.18;4.72;;;;;;;8.73;70.50;98807.88;4094041;28;20274;-57
2022/05/02 00:04:20;;;;;;;6.13;5.72;;;;;;;8.69;71.06;98808.56;4089561;29;20686;-57
2022/05/02 00:06:23;;;;;;;5.93;5.30;;;;;;;8.65;70.92;98799.19;4101104;28;20235;-58
2022/05/02 00:08:25;;;;;;;7.05;6.35;;;;;;;8.58;71.59;98801.16;4073074;29;20892;-56
2022/05/02 00:10:26;;;;;;;6.63;6.03;;;;;;;8.47;72.07;98799.19;4091317;29;20203;-57
2022/05/02 00:12:28;;;;;;;6.63;6.03;;;;;;;8.47;72.00;98788.28;4074653;29;20204;-56
2022/05/02 00:14:30;;;;;;;6.55;6.05;;;;;;;8.50;72.20;98790.56;4091669;28;20238;-58
2022/05/02 00:16:31;;;;;;;7.25;6.72;;;;;;;8.50;71.70;98791.38;4103984;28;20293;-56
2022/05/02 00:18:33;;;;;;;6.35;5.85;;;;;;;8.50;72.14;98785.94;4092327;28;20250;-57
2022/05/02 00:20:37;;;;;;;5.90;5.40;;;;;;;8.51;71.90;98784.06;4089050;29;20259;-57
2022/05/02 00:22:40;;;;;;;5.13;4.72;;;;;;;8.42;72.34;98793.63;4089698;29;20211;-58
2022/05/02 00:24:42;;;;;;;6.43;6.03;;;;;;;8.33;72.53;98792.25;4078324;29;20307;-57
2022/05/02 00:26:44;;;;;;;7.38;6.70;;;;;;;8.34;72.19;98774.88;4091157;28;20904;-59
2022/05/02 00:28:47;;;;;;;5.93;4.82;;;;;;;8.32;72.64;98771.50;4103717;28;20211;-57
2022/05/02 00:30:48;;;;;;;5.93;5.50;;;;;;;8.32;72.44;98771.50;4077026;29;20208;-56
2022/05/02 00:32:50;;;;;;;5.82;5.35;;;;;;;8.35;71.85;98765.63;4073150;29;20594;-58
2022/05/02 00:34:52;;;;;;;5.30;4.90;;;;;;;8.39;71.42;98766.81;4093283;29;20212;-57
2022/05/02 00:36:53;;;;;;;5.15;4.75;;;;;;;8.35;71.57;98771.88;4100972;28;20295;-58
2022/05/02 00:38:55;;;;;;;4.78;4.38;;;;;;;8.35;71.78;98766.44;4090944;28;20215;-58
2022/05/02 00:40:58;;;;;;;6.28;5.68;;;;;;;8.32;71.45;98766.91;4086722;28;20212;-57
2022/05/02 00:42:59;;;;;;;5.07;4.63;;;;;;;8.34;71.07;98767.50;4087379;28;20207;-58
2022/05/02 00:45:04;;;;;;;10.20;6.72;;;;;;;8.39;71.08;98764.06;4100686;28;20661;-59
2022/05/02 00:47:06;;;;;;;5.20;4.70;;;;;;;8.35;70.99;98760.16;4085780;28;20211;-58
2022/05/02 00:49:08;;;;;;;4.85;4.45;;;;;;;8.31;70.86;98764.41;4089387;29;20215;-57
2022/05/02 00:51:10;;;;;;;5.40;4.90;;;;;;;8.30;70.45;98762.75;4087489;29;20216;-58
2022/05/02 00:53:13;;;;;;;5.82;5.32;;;;;;;8.29;71.04;98767.34;4086088;28;20212;-57
2022/05/02 00:55:15;;;;;;;5.45;5.05;;;;;;;8.28;70.53;98760.22;4100144;28;20992;-56
2022/05/02 00:57:20;;;;;;;6.10;5.60;;;;;;;8.28;70.46;98753.97;4100863;28;20824;-58
2022/05/02 00:59:21;;;;;;;6.57;5.97;;;;;;;8.20;71.04;98756.97;4083458;29;20598;-57
2022/05/02 01:01:23;;;;;;;5.50;4.43;;;;;;;8.17;70.77;98760.16;4081781;28;20781;-56
2022/05/02 01:03:25;;;;;;;6.43;5.93;;;;;;;8.15;70.42;98765.00;4085981;29;20251;-56
2022/05/02 01:05:27;;;;;;;4.20;3.90;;;;;;;8.12;70.26;98757.25;4094015;29;20235;-56
2022/05/02 01:07:29;;;;;;;7.65;5.40;;;;;;;8.13;70.32;98767.09;4101629;28;20223;-57
2022/05/02 01:09:32;;;;;;;6.35;5.85;;;;;;;8.12;70.50;98765.44;4101353;28;20238;-57
2022/05/02 01:11:34;;;;;;;6.78;6.10;;;;;;;8.07;70.66;98757.97;4091372;28;20628;-56
2022/05/02 01:13:46;;;;;;;5.25;4.85;;;;;;;8.03;70.69;98761.38;4087015;28;20219;-55
2022/05/02 01:15:48;;;;;;;5.25;4.90;;;;;;;7.98;70.99;98761.22;4087485;29;20227;-56
2022/05/02 01:17:49;;;;;;;7.28;5.70;;;;;;;7.93;70.35;98755.59;4101023;28;20211;-56
2022/05/02 01:19:51;;;;;;;6.00;5.40;;;;;;;7.88;70.57;98759.03;4092892;28;20249;-57
2022/05/02 01:21:53;;;;;;;5.53;5.03;;;;;;;7.90;70.85;98762.34;4101228;28;20235;-56
2022/05/02 01:24:00;;;;;;;5.88;5.25;;;;;;;7.90;70.42;98761.53;4090477;28;20218;-56
2022/05/02 01:26:02;;;;;;;5.90;5.40;;;;;;;7.89;70.58;98765.31;4101055;28;20325;-57
2022/05/02 01:28:04;;;;;;;5.53;5.10;;;;;;;7.89;70.80;98765.31;4086283;29;20293;-58
2022/05/02 01:30:06;;;;;;;6.63;6.13;;;;;;;7.85;71.14;98764.09;4096964;28;20357;-59
2022/05/02 01:32:10;;;;;;;5.93;5.43;;;;;;;7.82;70.73;98765.38;4098792;28;20199;-58
2022/05/02 01:34:13;;;;;;;5.90;5.50;;;;;;;7.77;71.21;98761.66;4090073;29;20203;-57
2022/05/02 01:36:15;;;;;;;7.35;6.65;;;;;;;7.75;71.46;98759.16;4087391;29;20234;-56
2022/05/02 01:38:17;;;;;;;6.07;5.55;;;;;;;7.69;71.41;98754.63;4087960;28;20245;-57
2022/05/02 01:40:19;;;;;;;5.72;5.22;;;;;;;7.69;72.08;98759.25;4088845;28;20203;-56
2022/05/02 01:42:21;;;;;;;5.28;4.85;;;;;;;7.67;72.22;98758.63;4086028;29;20267;-57
2022/05/02 01:44:22;;;;;;;5.97;5.50;;;;;;;7.69;72.54;98748.34;4087289;28;20250;-57
2022/05/02 01:46:24;;;;;;;5.53;5.03;;;;;;;7.67;72.31;98745.84;4088070;28;20254;-57
2022/05/02 01:48:26;;;;;;;6.32;5.72;;;;;;;7.64;71.98;98753.66;4076335;29;20211;-57
2022/05/02 01:50:28;;;;;;;5.68;5.22;;;;;;;7.60;72.42;98745.09;4083993;29;20243;-57
2022/05/02 01:52:30;;;;;;;4.80;4.40;;;;;;;7.57;72.18;98744.72;4101040;28;20215;-56
2022/05/02 01:54:32;;;;;;;6.93;6.38;;;;;;;7.48;72.82;98752.34;4087730;28;20211;-58
2022/05/02 01:56:34;;;;;;;4.47;4.18;;;;;;;7.42;72.67;98755.13;4084758;29;20251;-56
2022/05/02 01:58:35;;;;;;;5.72;5.32;;;;;;;7.41;72.98;98750.75;4084342;29;20238;-58
2022/05/02 02:00:37;;;;;;;5.30;4.90;;;;;;;7.38;73.08;98748.47;4086368;28;20212;-57
2022/05/02 02:02:39;;;;;;;7.13;5.70;;;;;;;7.35;72.73;98746.19;4083143;29;20254;-56
2022/05/02 02:07:04;;;;;;;6.70;6.10;;;;;;;7.37;72.65;98741.34;4086879;28;20204;-58
2022/05/02 02:09:06;;;;;;;5.18;4.78;;;;;;;7.39;72.57;98736.50;4100393;28;20199;-59
2022/05/02 02:11:09;;;;;;;5.20;4.80;;;;;;;7.43;71.85;98743.19;4093450;28;20282;-57
2022/05/02 02:13:12;;;;;;;6.15;5.55;;;;;;;7.40;72.28;98751.78;4093837;28;20212;-56
2022/05/02 02:15:14;;;;;;;5.75;5.35;;;;;;;7.39;71.55;98752.84;4096384;28;20203;-58
2022/05/02 02:17:16;;;;;;;5.88;4.65;;;;;;;7.39;71.44;98739.22;4091658;28;20658;-57
2022/05/02 02:19:17;;;;;;;6.03;5.63;;;;;;;7.36;71.81;98745.94;4094258;29;20208;-57
2022/05/02 02:21:19;;;;;;;6.60;6.05;;;;;;;7.38;71.40;98751.19;4090094;28;20269;-56
2022/05/02 02:23:22;;;;;;;5.53;5.03;;;;;;;7.35;71.33;98747.00;4090908;29;20215;-57
2022/05/02 02:25:24;;;;;;;5.93;5.43;;;;;;;7.35;71.16;98741.56;4091140;28;21249;-56
2022/05/02 02:27:25;;;;;;;5.32;4.82;;;;;;;7.34;70.65;98744.50;4091114;28;20203;-56
2022/05/02 02:29:27;;;;;;;6.45;5.95;;;;;;;7.32;71.21;98743.91;4103145;28;20238;-57
2022/05/02 02:31:29;;;;;;;6.03;5.43;;;;;;;7.30;71.59;98743.31;4094807;28;20247;-57
2022/05/02 02:33:34;;;;;;;5.85;5.40;;;;;;;7.26;70.93;98742.91;4102110;28;20250;-56
2022/05/02 02:35:35;;;;;;;5.93;5.32;;;;;;;7.25;71.28;98738.53;4086863;28;20693;-57
2022/05/02 02:37:38;;;;;;;5.90;5.50;;;;;;;7.26;71.16;98742.91;4093631;28;20582;-56
2022/05/02 02:39:39;;;;;;;5.70;5.20;;;;;;;7.26;71.38;98745.66;4093402;28;20235;-57
2022/05/02 02:41:41;;;;;;;6.07;5.47;;;;;;;7.21;71.07;98745.47;4089676;28;20278;-55
2022/05/02 02:43:43;;;;;;;5.20;4.80;;;;;;;7.17;70.93;98737.97;4092978;28;20755;-60
2022/05/02 02:45:44;;;;;;;5.65;4.78;;;;;;;7.10;71.04;98739.94;4089728;28;20231;-56
2022/05/02 02:47:49;;;;;;;5.60;5.20;;;;;;;7.05;71.16;98735.16;4095547;29;20215;-57
2022/05/02 02:49:52;;;;;;;5.80;5.30;;;;;;;7.02;71.18;98735.59;4096657;28;20239;-56
2022/05/02 02:51:54;;;;;;;5.28;4.88;;;;;;;7.02;71.55;98734.78;4090293;29;20238;-56
2022/05/02 02:53:56;;;;;;;6.88;6.32;;;;;;;7.05;71.49;98729.72;4108495;28;20696;-58
2022/05/02 02:55:58;;;;;;;5.40;4.90;;;;;;;7.00;71.49;98725.97;4093002;28;20274;-58
2022/05/02 02:57:59;;;;;;;5.60;5.10;;;;;;;7.04;71.16;98728.06;4094578;28;20212;-58
2022/05/02 03:00:02;;;;;;;6.55;6.03;;;;;;;7.01;71.83;98728.50;4091043;28;20219;-58
2022/05/02 03:02:05;;;;;;;5.07;4.57;;;;;;;6.95;71.86;98729.38;4090485;28;20250;-58
2022/05/02 03:06:30;;;;;;;5.53;5.05;;;;;;;6.92;72.04;98728.97;4089453;29;20228;-56
2022/05/02 03:08:40;;;;;;;4.97;4.60;;;;;;;6.81;72.34;98721.53;4105588;28;20942;-57
2022/05/02 03:10:42;;;;;;;5.50;5.10;;;;;;;6.84;72.57;98715.66;4088573;29;20214;-57
2022/05/02 03:12:43;;;;;;;5.60;5.13;;;;;;;6.86;72.59;98719.00;4102558;28;20258;-56
2022/05/02 03:14:45;;;;;;;6.35;5.95;;;;;;;6.81;72.56;98711.50;4095079;29;20211;-57
2022/05/02 03:16:47;;;;;;;5.35;4.30;;;;;;;6.80;72.11;98714.44;4095228;28;20227;-57
2022/05/02 03:18:49;;;;;;;5.78;5.32;;;;;;;6.79;71.73;98710.06;4096662;29;20208;-57
2022/05/02 03:20:54;;;;;;;4.88;4.47;;;;;;;6.80;71.82;98711.72;4101556;28;20215;-59
2022/05/02 03:22:55;;;;;;;5.28;4.88;;;;;;;6.83;71.96;98705.84;4089141;28;20649;-57
2022/05/02 03:24:57;;;;;;;5.13;4.70;;;;;;;6.84;71.72;98707.50;4094610;28;20222;-58
2022/05/02 03:26:59;;;;;;;5.90;5.45;;;;;;;6.82;71.92;98704.19;4088947;29;20227;-57
2022/05/02 03:29:01;;;;;;;5.22;4.80;;;;;;;6.79;71.69;98705.47;4091232;28;20208;-60
2022/05/02 03:31:02;;;;;;;5.38;4.97;;;;;;;6.70;71.26;98705.94;4094032;29;20203;-58
2022/05/02 03:33:04;;;;;;;5.35;4.85;;;;;;;6.63;71.49;98697.00;4089805;29;20769;-58
2022/05/02 03:35:07;;;;;;;4.38;4.07;;;;;;;6.59;71.56;98702.06;4087401;29;20207;-57
2022/05/02 03:37:09;;;;;;;5.25;4.78;;;;;;;6.56;72.08;98701.66;4088205;28;20698;-57
2022/05/02 03:39:11;;;;;;;5.78;4.90;;;;;;;6.54;72.03;98698.31;4091375;28;20251;-57
2022/05/02 03:41:13;;;;;;;6.28;5.78;;;;;;;6.53;73.00;98699.38;4090107;28;20305;-59
2022/05/02 03:43:15;;;;;;;5.13;4.65;;;;;;;6.53;72.98;98700.22;4088751;28;20710;-57
2022/05/02 03:45:17;;;;;;;5.63;5.13;;;;;;;6.57;73.02;98692.44;4088370;28;20725;-60
2022/05/02 03:47:19;;;;;;;7.03;6.32;;;;;;;6.55;72.36;98694.56;4087509;28;20200;-58
2022/05/02 03:49:21;;;;;;;5.32;4.22;;;;;;;6.57;72.37;98689.72;4087022;28;20242;-56
2022/05/02 03:51:23;;;;;;;4.80;4.45;;;;;;;6.58;72.54;98689.53;4088584;28;20211;-57
2022/05/02 03:53:27;;;;;;;6.15;4.78;;;;;;;6.59;71.94;98690.34;4092879;28;20207;-57
2022/05/02 03:55:29;;;;;;;5.00;4.63;;;;;;;6.59;71.76;98695.78;4089374;28;20239;-57
2022/05/02 03:57:31;;;;;;;6.25;5.75;;;;;;;6.58;71.85;98700.41;4077249;29;20255;-56
2022/05/02 03:59:32;;;;;;;6.20;5.55;;;;;;;6.60;71.36;98686.56;4088182;28;22845;-56
2022/05/02 04:01:39;;;;;;;6.60;6.00;;;;;;;6.60;71.61;98692.84;4089357;29;20215;-56
2022/05/02 04:03:41;;;;;;;5.47;4.95;;;;;;;6.58;71.21;98694.97;4090050;28;20203;-56
2022/05/02 04:05:43;;;;;;;4.30;4.00;;;;;;;6.56;71.34;98691.59;4100837;28;20284;-57
2022/05/02 04:07:44;;;;;;;5.07;4.68;;;;;;;6.54;71.13;98692.88;4088297;28;20219;-57
2022/05/02 04:09:46;;;;;;;5.40;4.97;;;;;;;6.53;71.20;98693.94;4090046;28;20760;-57
2022/05/02 04:11:48;;;;;;;5.03;4.53;;;;;;;6.53;71.11;98691.22;4103671;28;20213;-56
2022/05/02 04:13:50;;;;;;;5.85;5.43;;;;;;;6.49;70.92;98690.00;4091105;28;20203;-58
2022/05/02 04:15:51;;;;;;;4.97;4.60;;;;;;;6.47;71.21;98692.09;4088247;28;20287;-58
2022/05/02 04:17:55;;;;;;;5.43;4.93;;;;;;;6.46;70.95;98696.72;4090922;28;20212;-57
2022/05/02 04:19:57;;;;;;;6.22;5.72;;;;;;;6.44;71.05;98692.53;4091636;29;20575;-58
2022/05/02 04:21:59;;;;;;;5.95;5.50;;;;;;;6.36;71.28;98695.53;4101613;28;20705;-57
2022/05/02 04:24:00;;;;;;;4.68;4.28;;;;;;;6.36;71.02;98695.53;4091642;29;20212;-59
2022/05/02 04:26:03;;;;;;;4.68;4.35;;;;;;;6.38;71.23;98698.84;4086431;29;20235;-60
2022/05/02 04:28:05;;;;;;;5.30;4.90;;;;;;;6.36;71.49;98695.53;4101471;28;20230;-57
2022/05/02 04:30:07;;;;;;;5.60;5.10;;;;;;;6.29;71.13;98700.19;4086572;28;20283;-57
2022/05/02 04:32:09;;;;;;;5.03;4.57;;;;;;;6.28;71.49;98704.78;4102038;28;20208;-59
2022/05/02 04:34:11;;;;;;;4.28;3.88;;;;;;;6.29;71.23;98697.47;4085109;28;21046;-58
2022/05/02 04:36:12;;;;;;;5.95;5.55;;;;;;;6.33;71.47;98707.66;4101366;28;20342;-59
2022/05/02 04:38:14;;;;;;;5.25;4.85;;;;;;;6.36;71.17;98706.41;4091961;28;20203;-59
2022/05/02 04:40:16;;;;;;;5.50;5.10;;;;;;;6.35;70.87;98704.75;4091719;29;20247;-57
2022/05/02 04:42:18;;;;;;;5.90;5.40;;;;;;;6.35;71.08;98704.75;4087597;28;20592;-59
2022/05/02 04:44:19;;;;;;;6.38;5.97;;;;;;;6.31;71.23;98704.34;4092397;28;20211;-57
2022/05/02 04:46:21;;;;;;;5.18;4.72;;;;;;;6.34;70.97;98703.06;4086240;28;20620;-59
2022/05/02 04:48:24;;;;;;;5.45;5.05;;;;;;;6.30;71.39;98702.66;4099583;28;20677;-58
2022/05/02 04:50:25;;;;;;;5.60;5.18;;;;;;;6.32;71.56;98705.16;4087808;28;20290;-59
2022/05/02 04:52:27;;;;;;;5.47;5.15;;;;;;;6.33;71.65;98701.38;4090302;28;21196;-57
2022/05/02 04:54:29;;;;;;;5.35;5.00;;;;;;;6.36;71.09;98703.69;4086867;28;20215;-58
2022/05/02 04:56:30;;;;;;;5.97;5.43;;;;;;;6.39;71.50;98695.94;4100656;28;20230;-57
2022/05/02 04:58:32;;;;;;;5.07;4.65;;;;;;;6.42;71.39;98702.81;4086949;28;20212;-58
2022/05/02 05:00:34;;;;;;;5.03;4.63;;;;;;;6.46;71.83;98694.00;4089696;29;20680;-58
2022/05/02 05:02:36;;;;;;;6.63;5.15;;;;;;;6.49;71.39;98695.44;4090659;29;20282;-58
2022/05/02 05:04:38;;;;;;;5.75;5.25;;;;;;;6.51;72.02;98693.34;4101916;28;20211;-57
2022/05/02 05:06:39;;;;;;;4.95;4.55;;;;;;;6.51;72.73;98698.78;4087477;29;20744;-57
2022/05/02 05:08:41;;;;;;;6.10;5.60;;;;;;;6.57;72.60;98695.19;4105156;28;20199;-57
2022/05/02 05:11:27;;;;;;;6.43;5.93;;;;;;;6.44;73.85;98697.97;4089692;28;20247;-58
2022/05/02 05:13:38;;;;;;;7.88;5.18;;;;;;;6.42;73.57;98700.09;4072729;29;20219;-58
2022/05/02 05:18:17;;;;;;;10.85;5.32;;;;;;;6.66;72.92;98696.56;4083963;28;20817;-57
2022/05/02 05:20:43;;;;;;;5.72;5.25;;;;;;;6.77;72.61;98710.25;4095980;28;20198;-57
2022/05/02 05:22:59;;;;;;;6.10;5.47;;;;;;;6.86;72.35;98697.22;4096470;28;20241;-59
2022/05/02 05:25:36;;;;;;;6.47;5.88;;;;;;;6.93;71.82;98687.13;4084901;28;20210;-58
2022/05/02 05:27:51;;;;;;;5.20;4.75;;;;;;;7.04;71.94;98702.72;4085887;29;20203;-58
2022/05/02 05:30:06;;;;;;;5.45;4.72;;;;;;;7.11;71.52;98689.91;4086034;28;20207;-59
2022/05/02 05:32:33;;;;;;;5.65;5.25;;;;;;;7.18;71.78;98693.38;4103554;28;20293;-58
2022/05/02 05:34:44;;;;;;;5.90;5.50;;;;;;;7.25;72.15;98696.88;4099589;28;20237;-57
2022/05/02 05:37:08;;;;;;;5.18;4.78;;;;;;;7.33;72.85;98693.84;4089137;28;20235;-57
2022/05/02 05:39:27;;;;;;;6.35;5.75;;;;;;;7.48;73.32;98692.44;4100583;28;20227;-58
2022/05/02 05:41:39;;;;;;;6.57;6.07;;;;;;;7.62;72.82;98693.13;4101810;28;20203;-57
2022/05/02 05:44:18;;;;;;;7.78;7.18;;;;;;;7.69;72.99;98700.16;4089914;29;20233;-58
2022/05/02 05:46:26;;;;;;;8.38;6.72;;;;;;;7.93;73.80;98698.38;4087110;28;20266;-58
2022/05/02 05:48:37;;;;;;;6.93;6.38;;;;;;;8.14;73.45;98698.75;4106075;28;20214;-58
2022/05/02 05:50:48;;;;;;;6.53;6.10;;;;;;;8.34;72.48;98693.88;4100356;28;20269;-58
2022/05/02 05:53:09;;;;;;;6.18;5.68;;;;;;;8.30;73.24;98697.31;4086088;29;20562;-58
2022/05/02 05:55:22;;;;;;;7.47;6.88;;;;;;;8.55;72.45;98700.72;4099941;28;20226;-58
2022/05/02 05:57:35;;;;;;;8.32;5.82;;;;;;;8.78;72.20;98696.16;4085507;28;20199;-58
2022/05/02 05:59:54;;;;;;;6.18;5.65;;;;;;;8.98;71.52;98696.66;4097937;28;20660;-57
2022/05/02 06:01:56;;;;;;;8.13;7.47;;;;;;;9.12;71.40;98697.25;4100191;28;20253;-58
2022/05/02 06:04:07;;;;;;;6.28;5.68;;;;;;;9.12;71.81;98702.72;4081464;28;20668;-59
2022/05/02 06:06:10;;;;;;;5.68;5.30;;;;;;;9.22;71.54;98692.06;4098512;28;20298;-58
2022/05/02 06:08:19;;;;;;;6.47;5.97;;;;;;;9.32;71.38;98692.28;4074861;29;20215;-59
2022/05/02 06:10:24;;;;;;;6.22;5.72;;;;;;;9.30;71.13;98694.44;4090942;28;20710;-58
2022/05/02 06:12:29;;;;;;;6.70;6.20;;;;;;;9.58;71.92;98697.25;4103724;28;20285;-59
2022/05/02 06:18:27;;;;;;;5.43;4.93;;;;;;;9.81;70.03;98697.22;4104486;28;20199;-58
2022/05/02 06:19:26;;;;;;;5.25;4.75;;;;;;;10.23;69.07;98695.94;4089096;28;20640;-58
2022/05/02 06:21:28;;;;;;;4.82;4.43;;;;;;;10.25;70.23;98696.53;4101425;28;20283;-58
2022/05/02 06:23:50;;;;;;;4.68;4.28;;;;;;;10.45;69.72;98689.56;4084959;29;20279;-56
2022/05/02 06:25:54;;;;;;;5.53;5.13;;;;;;;10.48;69.22;98690.97;4101617;28;20600;-58
2022/05/02 06:28:02;;;;;;;5.03;4.63;;;;;;;10.60;68.51;98688.97;4092195;28;20211;-58
2022/05/02 06:30:05;;;;;;;4.55;4.25;;;;;;;10.65;68.52;98689.09;4088333;28;20701;-57
2022/05/02 06:32:12;;;;;;;4.65;3.92;;;;;;;10.60;69.00;98691.72;4086472;28;20635;-57
2022/05/02 06:34:15;;;;;;;5.50;5.07;;;;;;;10.54;69.74;98692.72;4092489;28;20600;-58
2022/05/02 06:36:54;;;;;;;5.28;4.85;;;;;;;10.70;68.62;98698.25;4102989;28;20222;-58
2022/05/02 06:39:04;;;;;;;4.07;3.78;;;;;;;10.72;68.86;98698.81;4103597;28;20203;-58
2022/05/02 06:41:24;;;;;;;4.47;4.18;;;;;;;10.69;69.30;98702.03;4085466;28;20215;-55
2022/05/02 06:43:28;;;;;;;6.00;5.40;;;;;;;10.73;69.41;98692.25;4090675;29;20243;-55
2022/05/02 06:45:36;;;;;;;4.90;4.50;;;;;;;10.91;68.48;98695.59;4089231;28;20310;-55
2022/05/02 06:47:49;;;;;;;6.75;6.25;;;;;;;11.00;68.71;98702.34;4087091;28;20211;-56
2022/05/02 06:50:06;;;;;;;6.18;5.63;;;;;;;11.23;68.92;98699.41;4094506;28;20805;-55
2022/05/02 06:52:10;;;;;;;5.43;5.03;;;;;;;11.33;68.46;98694.13;4102903;28;20213;-55
2022/05/02 06:54:21;;;;;;;4.55;4.25;;;;;;;11.57;68.18;98698.28;4093631;28;20211;-56
2022/05/02 06:56:42;;;;;;;3.10;2.90;;;;;;;11.69;68.10;98699.06;4087568;28;20227;-56
2022/05/02 06:59:02;;;;;;;4.57;4.18;;;;;;;11.66;67.59;98704.22;4091182;28;20211;-57
2022/05/02 07:01:19;;;;;;;3.97;3.45;;;;;;;11.86;67.62;98699.84;4104982;28;20661;-55
2022/05/02 07:03:27;;;;;;;4.45;4.07;;;;;;;11.97;67.53;98703.56;4103808;28;20227;-56
2022/05/02 07:05:50;;;;;;;4.18;3.88;;;;;;;12.07;66.51;98710.00;4104701;28;20281;-55
2022/05/02 07:08:07;;;;;;;4.05;3.70;;;;;;;12.36;67.61;98705.16;4101337;28;20269;-56
2022/05/02 07:10:26;;;;;;;3.05;2.80;;;;;;;12.40;66.39;98696.16;4104010;28;20274;-56
2022/05/02 07:12:31;;;;;;;3.20;2.90;;;;;;;12.72;65.94;98704.44;4090147;28;20239;-56
2022/05/02 07:14:40;;;;;;;4.18;3.88;;;;;;;13.00;65.45;98701.44;4088900;28;20323;-57
2022/05/02 07:16:48;;;;;;;3.33;3.10;;;;;;;13.42;64.38;98694.94;4090674;28;20292;-56
2022/05/02 07:19:11;;;;;;;3.53;3.22;;;;;;;13.53;64.16;98696.66;4085358;28;20243;-55
2022/05/02 07:21:27;;;;;;;3.45;3.15;;;;;;;13.54;63.62;98698.31;4104196;28;20206;-56
2022/05/02 07:23:49;;;;;;;3.17;2.97;;;;;;;13.89;62.90;98701.28;4090141;28;20753;-55
2022/05/02 07:26:08;;;;;;;4.65;3.22;;;;;;;14.37;61.76;98700.19;4092397;28;20227;-56
2022/05/02 07:28:25;;;;;;;3.83;3.53;;;;;;;14.55;61.16;98700.50;4090715;28;20260;-56
2022/05/02 07:30:27;;;;;;;3.63;3.33;;;;;;;14.71;61.22;98699.44;4089692;28;20251;-57
2022/05/02 07:32:30;;;;;;;3.30;2.70;;;;;;;14.94;61.23;98693.44;4107856;28;20213;-55
2022/05/02 07:34:36;;;;;;;3.63;3.30;;;;;;;15.27;59.84;98698.41;4096512;28;20238;-55
2022/05/02 07:36:39;;;;;;;4.45;4.05;;;;;;;15.22;60.46;98698.41;4107060;28;20235;-56
2022/05/02 07:38:42;;;;;;;3.83;3.33;;;;;;;15.48;58.83;98702.84;4104616;28;20208;-56
2022/05/02 07:41:22;;;;;;;2.90;2.70;;;;;;;15.64;58.36;98706.44;4094863;28;20294;-55
2022/05/02 07:43:08;;;;;;;6.53;3.40;;;;;;;15.27;59.12;98703.94;4089909;28;20279;-55
2022/05/02 07:45:10;;;;;;;3.70;3.40;;;;;;;15.01;59.94;98699.50;4093090;28;20211;-54
2022/05/02 07:47:15;;;;;;;3.42;3.13;;;;;;;15.41;59.72;98710.59;4089099;28;20211;-55
2022/05/02 07:49:24;;;;;;;3.25;2.95;;;;;;;15.65;59.42;98694.28;4102528;28;20210;-54
2022/05/02 07:51:29;;;;;;;2.80;2.53;;;;;;;16.20;57.89;98703.25;4077949;29;20299;-53
2022/05/02 07:53:37;;;;;;;3.60;3.28;;;;;;;16.26;58.05;98699.38;4088583;28;20235;-54
2022/05/02 07:55:40;;;;;;;4.30;3.95;;;;;;;16.18;58.24;98697.19;4075220;29;20231;-54
2022/05/02 07:57:47;;;;;;;3.15;2.85;;;;;;;16.14;58.38;98704.38;4089877;28;20208;-56
2022/05/02 07:59:52;;;;;;;2.60;2.40;;;;;;;16.26;57.89;98699.38;4090181;28;20216;-53
2022/05/02 08:01:53;;;;;;;3.47;3.17;;;;;;;16.70;56.99;98708.56;4090752;29;20211;-56
2022/05/02 08:03:55;;;;;;;3.47;3.17;;;;;;;16.32;57.59;98700.16;4088673;28;20228;-55
2022/05/02 08:06:07;;;;;;;4.78;3.42;;;;;;;16.62;57.03;98698.13;4103002;28;20319;-54
2022/05/02 08:08:19;;;;;;;2.67;2.35;;;;;;;16.72;56.90;98695.31;4102276;28;20227;-55
2022/05/02 08:10:59;;;;;;;3.05;2.75;;;;;;;16.08;57.95;98697.22;4107633;28;20211;-53
2022/05/02 08:13:14;;;;;;;2.60;2.35;;;;;;;16.65;57.43;98689.28;4080847;28;20251;-56
2022/05/02 08:15:34;;;;;;;3.75;3.38;;;;;;;16.79;57.00;98700.53;4089957;29;20215;-54
2022/05/02 08:18:02;;;;;;;2.17;1.98;;;;;;;16.92;56.80;98700.72;4091096;28;20200;-54
2022/05/02 08:20:26;;;;;;;3.50;2.67;;;;;;;17.21;55.90;98690.56;4101737;28;20199;-54
2022/05/02 08:27:39;;;;;;;8.23;3.08;;;;;;;17.76;55.15;98695.63;4073065;29;20219;-54
2022/05/02 08:30:01;;;;;;;3.72;3.42;;;;;;;17.83;54.90;98690.56;4103572;28;20203;-54
2022/05/02 08:32:07;;;;;;;3.38;3.08;;;;;;;17.71;55.34;98690.16;4103926;28;20202;-54
2022/05/02 08:34:41;;;;;;;3.28;2.97;;;;;;;18.31;54.10;98687.56;4102694;28;20820;-54
2022/05/02 08:37:09;;;;;;;3.35;2.78;;;;;;;18.32;53.94;98688.41;4089762;28;20227;-54
2022/05/02 08:39:14;;;;;;;3.95;3.55;;;;;;;18.24;53.90;98692.59;4090374;28;20737;-53
2022/05/02 08:41:28;;;;;;;2.92;2.72;;;;;;;18.78;53.10;98683.91;4073325;29;20620;-54
2022/05/02 08:44:01;;;;;;;2.65;2.45;;;;;;;18.66;53.15;98681.56;4101957;28;20696;-54
2022/05/02 08:46:13;;;;;;;3.42;3.13;;;;;;;18.41;52.60;98681.91;4099433;28;21084;-54
2022/05/02 08:48:33;;;;;;;3.00;2.40;;;;;;;18.30;53.04;98679.50;4102020;28;20867;-53
2022/05/02 08:51:14;;;;;;;3.53;3.22;;;;;;;18.20;53.53;98685.19;4101820;28;20210;-54
2022/05/02 08:53:49;;;;;;;3.05;2.78;;;;;;;18.25;53.54;98682.38;4088076;28;20195;-54
2022/05/02 08:56:04;;;;;;;2.88;2.58;;;;;;;18.34;53.30;98669.53;4084629;28;20246;-55
2022/05/02 08:58:15;;;;;;;2.92;2.72;;;;;;;18.43;53.57;98674.13;4088528;28;20203;-56
2022/05/02 09:00:56;;;;;;;4.00;2.80;;;;;;;18.57;52.64;98674.22;4087900;28;20247;-54
2022/05/02 09:03:17;;;;;;;2.72;2.38;;;;;;;18.82;52.70;98671.91;4102576;28;20339;-55
2022/05/02 09:05:28;;;;;;;3.05;2.75;;;;;;;18.52;53.45;98672.31;4097120;28;20737;-55
2022/05/02 09:08:05;;;;;;;2.25;2.05;;;;;;;18.36;53.26;98667.28;4101366;28;20261;-55
2022/05/02 09:10:15;;;;;;;3.20;2.90;;;;;;;18.11;53.56;98675.88;4083130;28;20212;-54
2022/05/02 09:12:32;;;;;;;3.38;2.40;;;;;;;18.37;53.82;98668.91;4084726;29;20214;-55
2022/05/02 09:14:58;;;;;;;3.60;3.30;;;;;;;18.60;52.68;98665.31;4101150;28;20203;-56
2022/05/02 09:17:06;;;;;;;3.35;3.05;;;;;;;19.03;51.94;98666.88;4085898;28;20219;-53
2022/05/02 09:19:26;;;;;;;2.83;2.47;;;;;;;19.34;52.77;98665.31;4102440;28;20253;-53
2022/05/02 09:21:41;;;;;;;3.50;3.20;;;;;;;19.24;52.10;98662.72;4101806;28;20230;-56
2022/05/02 09:24:01;;;;;;;3.13;2.92;;;;;;;19.14;53.29;98668.38;4100406;28;20226;-55
2022/05/02 09:26:05;;;;;;;4.88;2.72;;;;;;;19.65;51.05;98672.00;4101041;28;20233;-53
2022/05/02 09:28:46;;;;;;;2.65;2.45;;;;;;;19.59;49.24;98660.13;4102190;28;20298;-53
2022/05/02 09:31:15;;;;;;;3.22;2.45;;;;;;;19.71;49.81;98657.69;4092051;29;20307;-55
2022/05/02 09:33:45;;;;;;;3.03;2.75;;;;;;;18.72;52.40;98651.81;4103968;28;20203;-53
2022/05/02 09:35:54;;;;;;;2.42;2.22;;;;;;;19.54;51.56;98659.41;4101125;28;20237;-53
2022/05/02 09:37:58;;;;;;;6.70;2.72;;;;;;;19.87;50.36;98655.47;4086020;28;20207;-54
2022/05/02 09:40:04;;;;;;;4.25;2.35;;;;;;;20.12;50.10;98652.22;4086420;28;20266;-53
2022/05/02 09:42:17;;;;;;;3.80;3.47;;;;;;;20.57;49.18;98642.94;4101284;28;20210;-55
2022/05/02 09:50:26;;;;;;;2.65;2.45;;;;;;;20.62;47.65;98640.88;4087756;28;20680;-53
2022/05/02 09:52:39;;;;;;;2.40;2.20;;;;;;;19.72;47.19;98636.31;4085338;28;20243;-55
2022/05/02 09:57:16;;;;;;;2.15;1.80;;;;;;;19.57;47.55;98633.81;4088785;29;20243;-54
2022/05/02 09:59:26;;;;;;;2.50;2.30;;;;;;;19.16;48.23;98627.25;4098212;28;20333;-55
2022/05/02 10:01:31;;;;;;;2.72;2.53;;;;;;;18.85;48.42;98628.91;4074632;29;20215;-53
2022/05/02 10:04:01;;;;;;;4.53;3.17;;;;;;;18.96;49.00;98633.13;4073779;29;20371;-53
2022/05/02 10:06:11;;;;;;;2.90;2.60;;;;;;;18.93;48.87;98626.25;4087284;28;20223;-53
2022/05/02 10:08:34;;;;;;;2.85;2.65;;;;;;;19.17;48.96;98623.41;4086888;28;20266;-54
2022/05/02 10:10:50;;;;;;;2.83;2.45;;;;;;;19.04;50.14;98607.50;4103815;28;20230;-54
2022/05/02 10:13:18;;;;;;;3.72;2.22;;;;;;;18.28;49.22;98615.25;4093804;29;20230;-55
2022/05/02 10:15:22;;;;;;;2.72;2.00;;;;;;;18.66;50.50;98616.97;4101670;28;20199;-53
2022/05/02 10:17:55;;;;;;;3.15;2.83;;;;;;;19.28;51.37;98620.16;4087378;28;20211;-54
2022/05/02 10:20:16;;;;;;;2.78;2.58;;;;;;;20.01;49.54;98615.47;4100616;28;20221;-54
2022/05/02 10:22:38;;;;;;;2.80;2.22;;;;;;;20.72;49.16;98612.00;4103136;28;20557;-55
2022/05/02 10:25:08;;;;;;;2.25;2.08;;;;;;;20.36;48.30;98609.19;4099149;28;20235;-55
2022/05/02 10:27:23;;;;;;;5.00;2.25;;;;;;;20.89;47.42;98613.00;4100067;28;20211;-55
2022/05/02 10:29:42;;;;;;;2.22;1.88;;;;;;;21.18;46.77;98604.25;4101085;28;20203;-55
2022/05/02 10:31:50;;;;;;;3.78;1.98;;;;;;;21.02;47.40;98605.72;4101660;28;20503;-54